Time;durP1;ratioP1;P1;durP2;ratioP2;P2;SDS_P1;SDS_P2;PMS_P1;PMS_P2;Temp;Humidity;BMP_temperature;BMP_pressure;BME280_temperature;BME280_humidity;BME280_pressure;Samples;Min_cycle;Max_cycle;Signal;HPM_P1;HPM_P2
2022/08/20 04:22:35;;;;;;;5.90;2.70;;;;;;;20.29;84.08;100194.75;5088924;28;20358;-65
2022/08/20 04:25:03;;;;;;;5.90;2.65;;;;;;;20.33;84.21;100193.19;5088998;28;20040;-65
2022/08/20 04:27:31;;;;;;;5.55;2.60;;;;;;;20.33;83.79;100206.72;5088878;28;20370;-65
2022/08/20 04:29:58;;;;;;;6.05;2.80;;;;;;;20.37;83.76;100201.66;5089048;28;20114;-66
2022/08/20 04:32:24;;;;;;;5.25;3.20;;;;;;;20.38;83.50;100203.31;5088650;28;20089;-66
2022/08/20 04:34:51;;;;;;;4.30;2.88;;;;;;;20.39;83.58;100210.38;5088956;28;20036;-66
2022/08/20 04:37:20;;;;;;;5.63;3.13;;;;;;;20.39;83.62;100212.25;5088544;28;20535;-65
2022/08/20 04:40:52;;;;;;;4.85;2.60;;;;;;;20.40;83.74;100213.88;5088435;28;20397;-65
2022/08/20 04:42:31;;;;;;;5.80;3.35;;;;;;;20.40;83.75;100216.59;5088373;28;20078;-65
2022/08/20 04:44:56;;;;;;;8.45;2.42;;;;;;;20.41;83.71;100215.53;5088720;28;20504;-65
2022/08/20 04:47:22;;;;;;;7.57;2.70;;;;;;;20.42;84.11;100214.50;5088538;28;20060;-65
2022/08/20 04:49:47;;;;;;;6.60;3.55;;;;;;;20.42;83.55;100214.50;5088126;28;20048;-65
2022/08/20 04:52:12;;;;;;;4.75;3.15;;;;;;;20.38;84.22;100222.25;5088343;28;20040;-66
2022/08/20 04:54:38;;;;;;;5.95;3.20;;;;;;;20.38;83.89;100221.44;5088346;28;20416;-65
2022/08/20 04:57:03;;;;;;;5.63;2.67;;;;;;;20.34;84.42;100221.06;5086814;28;20055;-65
2022/08/20 04:59:29;;;;;;;4.05;2.40;;;;;;;20.36;84.00;100218.97;5087975;28;20033;-65
2022/08/20 05:01:54;;;;;;;6.45;2.80;;;;;;;20.38;84.21;100221.44;5088251;28;20512;-65
2022/08/20 05:04:20;;;;;;;5.65;3.20;;;;;;;20.35;84.05;100217.31;5088352;28;20124;-65
2022/08/20 05:06:47;;;;;;;4.13;3.13;;;;;;;20.40;83.87;100219.31;5088081;28;20075;-65
2022/08/20 05:09:12;;;;;;;5.10;3.38;;;;;;;20.30;84.82;100214.50;5087911;28;20047;-66
2022/08/20 05:11:38;;;;;;;5.70;2.80;;;;;;;20.30;84.53;100219.91;5088149;28;20533;-65
2022/08/20 05:14:07;;;;;;;4.20;2.90;;;;;;;20.22;84.94;100221.09;5088370;28;20040;-66
2022/08/20 05:16:36;;;;;;;6.25;2.83;;;;;;;20.20;85.05;100223.22;5086614;28;20489;-65
2022/08/20 05:19:02;;;;;;;4.82;2.78;;;;;;;20.16;85.19;100216.66;5067592;28;20094;-65
2022/08/20 05:21:27;;;;;;;6.18;3.25;;;;;;;20.12;85.58;100223.56;5067341;28;20034;-65
2022/08/20 05:23:53;;;;;;;4.70;3.08;;;;;;;20.13;85.92;100230.63;5067623;28;20532;-65
2022/08/20 05:26:18;;;;;;;4.55;2.65;;;;;;;20.10;85.82;100236.53;5067439;28;20511;-66
2022/08/20 05:28:44;;;;;;;6.18;2.97;;;;;;;20.08;86.37;100243.19;5067472;28;20489;-65
2022/08/20 05:31:10;;;;;;;4.60;2.72;;;;;;;20.09;86.15;100248.41;5065961;28;20033;-66
2022/08/20 05:33:37;;;;;;;4.40;2.55;;;;;;;20.10;85.95;100249.22;5056205;28;20044;-65
2022/08/20 05:36:05;;;;;;;5.15;2.53;;;;;;;20.17;85.60;100247.22;5054219;28;20041;-66
2022/08/20 05:38:31;;;;;;;5.95;3.13;;;;;;;20.22;86.07;100247.34;5054080;28;20484;-66
2022/08/20 05:40:57;;;;;;;6.75;3.05;;;;;;;20.27;85.36;100253.66;5053740;28;20052;-66
2022/08/20 05:43:23;;;;;;;6.10;3.70;;;;;;;20.33;85.15;100251.88;5054007;28;20041;-65
2022/08/20 05:45:51;;;;;;;6.90;3.25;;;;;;;20.39;84.65;100256.34;5063100;28;20067;-66
2022/08/20 05:48:20;;;;;;;5.15;2.75;;;;;;;20.44;84.65;100258.34;5072613;28;20032;-66
2022/08/20 05:50:48;;;;;;;5.45;2.80;;;;;;;20.41;84.39;100256.97;5073594;28;20032;-65
2022/08/20 05:53:14;;;;;;;;;;;;;;;20.38;84.85;100252.00;5074292;28;20112;-66
2022/08/20 05:55:39;;;;;;;5.38;2.92;;;;;;;20.41;84.66;100256.09;5059822;28;19924;-51
2022/08/20 05:58:12;;;;;;;3.15;2.17;;;;;;;20.48;84.35;100257.69;5053786;28;20116;-54
2022/08/20 06:00:38;;;;;;;5.40;2.72;;;;;;;20.50;83.94;100254.72;5053391;28;20033;-53
2022/08/20 06:05:47;;;;;;;6.50;2.92;;;;;;;20.64;83.45;100258.81;5053438;28;20485;-56
2022/08/20 06:08:13;;;;;;;5.55;3.15;;;;;;;20.68;83.37;100260.00;5053697;28;20044;-51
2022/08/20 06:10:39;;;;;;;5.28;2.58;;;;;;;20.80;82.50;100259.94;5053288;28;20091;-54
2022/08/20 06:13:06;;;;;;;4.82;3.10;;;;;;;20.85;82.16;100258.16;5053574;28;20068;-54
2022/08/20 06:15:33;;;;;;;4.55;2.65;;;;;;;20.94;81.78;100257.78;5053456;28;20033;-49
2022/08/20 06:17:59;;;;;;;4.43;2.53;;;;;;;20.91;81.72;100250.97;5053464;28;20045;-52
2022/08/20 06:20:25;;;;;;;5.93;2.67;;;;;;;20.97;81.65;100249.19;5052759;28;20444;-51
2022/08/20 06:22:50;;;;;;;6.28;3.05;;;;;;;21.06;81.22;100247.72;5053361;28;20029;-50
2022/08/20 06:25:16;;;;;;;4.97;3.15;;;;;;;21.11;81.62;100253.22;5053253;28;20319;-52
2022/08/20 06:27:42;;;;;;;5.03;2.70;;;;;;;21.17;80.40;100252.25;5053284;28;20456;-52
2022/08/20 06:30:11;;;;;;;4.07;2.50;;;;;;;21.24;80.46;100258.34;5052848;28;20125;-51
2022/08/20 06:32:36;;;;;;;5.10;2.70;;;;;;;21.28;80.43;100262.25;5053077;28;20538;-50
2022/08/20 06:35:05;;;;;;;3.92;2.47;;;;;;;21.22;81.06;100256.97;5053094;28;20028;-54
2022/08/20 06:37:32;;;;;;;5.78;3.13;;;;;;;21.24;80.76;100265.66;5052986;28;20044;-54
2022/08/20 06:40:05;;;;;;;5.13;3.22;;;;;;;21.24;80.12;100258.34;5051595;28;20056;-50
2022/08/20 06:42:30;;;;;;;5.28;3.05;;;;;;;21.27;79.54;100266.00;5052927;28;20128;-52
2022/08/20 06:44:58;;;;;;;4.28;2.53;;;;;;;21.23;80.79;100270.25;5051989;28;20060;-52
2022/08/20 06:47:23;;;;;;;4.68;2.65;;;;;;;21.24;80.15;100269.19;5052881;28;20043;-51
2022/08/20 06:49:49;;;;;;;5.10;3.10;;;;;;;21.21;80.26;100269.69;5052628;28;20037;-55
2022/08/20 06:52:15;;;;;;;5.32;2.42;;;;;;;21.24;80.22;100277.31;5052837;28;20479;-51
2022/08/20 06:54:42;;;;;;;4.70;2.47;;;;;;;21.21;80.21;100272.41;5052672;28;20033;-53
2022/08/20 06:57:08;;;;;;;4.18;2.20;;;;;;;21.24;80.21;100268.38;5052662;28;20497;-52
2022/08/20 06:59:35;;;;;;;5.13;3.03;;;;;;;21.22;80.45;100270.50;5052534;28;20045;-52
2022/08/20 07:02:01;;;;;;;6.53;3.03;;;;;;;21.30;79.95;100279.09;5052506;28;20033;-51
2022/08/20 07:04:26;;;;;;;5.63;2.92;;;;;;;21.34;79.86;100272.13;5052523;28;20478;-54
2022/08/20 07:06:53;;;;;;;4.90;3.08;;;;;;;21.40;79.58;100281.19;5052411;28;20079;-53
2022/08/20 07:09:20;;;;;;;4.68;2.75;;;;;;;21.47;79.70;100281.03;5052260;28;20080;-54
2022/08/20 07:11:47;;;;;;;5.22;2.47;;;;;;;21.51;79.31;100280.28;5052505;28;20025;-53
2022/08/20 07:14:13;;;;;;;6.50;2.40;;;;;;;21.55;79.37;100276.00;5052476;28;20526;-55
2022/08/20 07:16:38;;;;;;;4.93;2.40;;;;;;;21.60;78.74;100276.09;5052142;28;20127;-54
2022/08/20 07:19:04;;;;;;;4.22;2.20;;;;;;;21.65;78.10;100287.03;5051841;28;20041;-54
2022/08/20 07:21:30;;;;;;;3.53;2.15;;;;;;;21.72;78.36;100288.78;5051933;28;20025;-55
2022/08/20 07:23:56;;;;;;;3.28;1.67;;;;;;;21.74;78.78;100290.16;5052182;28;20029;-55
2022/08/20 07:26:22;;;;;;;4.05;2.13;;;;;;;21.76;77.73;100279.88;5052110;28;20466;-52
2022/08/20 07:28:48;;;;;;;3.03;1.63;;;;;;;21.80;77.17;100285.66;5051896;28;20041;-55
2022/08/20 07:33:57;;;;;;;7.40;2.53;;;;;;;21.80;77.66;100297.31;5052621;28;20045;-54
2022/08/20 07:36:24;;;;;;;3.78;2.10;;;;;;;21.75;77.81;100289.09;5050542;28;20049;-56
2022/08/20 07:38:51;;;;;;;3.53;1.80;;;;;;;21.74;78.22;100290.16;5050385;28;20024;-56
2022/08/20 07:41:18;;;;;;;3.75;2.13;;;;;;;21.73;77.87;100290.41;5051529;28;20037;-55
2022/08/20 07:43:44;;;;;;;4.82;2.50;;;;;;;21.76;78.32;100292.63;5051826;28;20065;-52
2022/08/20 07:46:11;;;;;;;3.65;2.10;;;;;;;21.77;78.07;100297.78;5051726;28;20497;-47
2022/08/20 07:48:39;;;;;;;3.05;1.83;;;;;;;21.74;78.40;100294.75;5051728;28;20156;-48
2022/08/20 07:51:06;;;;;;;3.55;2.15;;;;;;;21.73;78.19;100310.22;5051452;28;20450;-49
2022/08/20 07:53:33;;;;;;;3.50;2.13;;;;;;;21.74;78.58;100311.03;5051637;28;20045;-49
2022/08/20 07:55:59;;;;;;;;;;;;;;;21.70;77.96;100310.69;5051799;28;20118;-53
2022/08/20 07:58:25;;;;;;;3.75;1.90;;;;;;;21.71;78.44;100308.78;5051581;28;20370;-52
2022/08/20 08:00:51;;;;;;;2.83;1.65;;;;;;;21.61;78.54;100315.69;5051275;28;20037;-50
2022/08/20 08:03:16;;;;;;;4.15;1.77;;;;;;;21.59;78.64;100311.59;5051381;28;20482;-54
2022/08/20 08:05:45;;;;;;;2.33;1.88;;;;;;;21.50;79.70;100321.16;5051490;28;20048;-53
2022/08/20 08:08:24;;;;;;;3.03;1.90;;;;;;;21.40;80.26;100319.94;5051416;28;20040;-54
2022/08/20 08:10:56;;;;;;;3.33;1.73;;;;;;;21.29;81.61;100328.09;5051208;28;20055;-49
2022/08/20 08:13:28;;;;;;;3.50;1.90;;;;;;;21.23;82.55;100320.91;5051620;28;20136;-51
2022/08/20 08:15:57;;;;;;;2.58;1.50;;;;;;;21.14;83.96;100323.19;5051433;28;20075;-54
2022/08/20 08:18:27;;;;;;;3.85;2.15;;;;;;;21.07;84.29;100339.56;5051493;28;20044;-50
2022/08/20 08:20:53;;;;;;;3.20;2.25;;;;;;;21.02;86.39;100325.09;5050806;28;20037;-48
2022/08/20 08:23:23;;;;;;;4.13;2.10;;;;;;;21.01;88.04;100334.28;5050805;28;20071;-54
2022/08/20 08:25:50;;;;;;;3.88;2.03;;;;;;;20.93;89.12;100323.81;5051485;28;20462;-50
2022/08/20 08:28:17;;;;;;;3.20;2.10;;;;;;;20.95;91.33;100329.84;5051603;28;20102;-50
2022/08/20 08:30:43;;;;;;;5.13;2.35;;;;;;;20.88;93.07;100329.16;5051100;28;20036;-48
2022/08/20 08:33:27;;;;;;;5.70;2.22;;;;;;;20.64;96.16;100326.47;5051414;28;20179;-54
2022/08/20 08:35:54;;;;;;;4.65;2.40;;;;;;;20.65;98.09;100330.00;5051157;28;20037;-49
2022/08/20 08:38:21;;;;;;;6.10;3.00;;;;;;;20.53;97.50;100332.69;5051133;28;20041;-50
2022/08/20 08:40:50;;;;;;;5.07;2.13;;;;;;;20.46;98.26;100323.88;5050684;28;20117;-50
2022/08/20 08:43:18;;;;;;;3.97;2.20;;;;;;;20.45;97.71;100331.19;5051131;28;20029;-52
2022/08/20 08:45:47;;;;;;;3.67;2.17;;;;;;;20.51;98.76;100326.72;5051022;28;20357;-49
2022/08/20 08:48:17;;;;;;;4.47;2.13;;;;;;;20.54;97.41;100326.25;5051087;28;20044;-50
2022/08/20 08:50:49;;;;;;;3.13;1.88;;;;;;;20.62;98.44;100336.72;5051316;28;20057;-53
2022/08/20 08:53:23;;;;;;;4.28;1.90;;;;;;;20.73;96.09;100332.31;5049786;28;20049;-56
2022/08/20 08:55:48;;;;;;;4.32;2.35;;;;;;;20.91;95.93;100334.06;5051030;28;20029;-54
2022/08/20 08:58:14;;;;;;;2.97;1.92;;;;;;;21.03;94.25;100337.56;5051149;28;20457;-55
2022/08/20 09:00:39;;;;;;;3.75;2.20;;;;;;;21.10;92.21;100333.66;5050662;28;20444;-51
2022/08/20 09:03:15;;;;;;;3.00;1.92;;;;;;;21.23;90.84;100334.44;5050964;28;20057;-50
2022/08/20 09:05:49;;;;;;;2.97;1.80;;;;;;;21.18;88.36;100343.28;5050872;28;20049;-54
2022/08/20 09:08:18;;;;;;;2.72;1.70;;;;;;;21.08;87.63;100338.50;5052711;28;20071;-54
2022/08/20 09:10:45;;;;;;;3.10;1.92;;;;;;;21.18;87.93;100347.88;5054341;28;20040;-52
2022/08/20 09:13:11;;;;;;;2.78;1.92;;;;;;;21.09;88.31;100342.84;5054518;28;20032;-52
2022/08/20 09:15:37;;;;;;;3.10;2.08;;;;;;;21.14;88.63;100337.53;5054313;28;20037;-55
2022/08/20 09:18:02;;;;;;;4.20;1.65;;;;;;;21.19;88.85;100342.25;5054472;28;20037;-56
2022/08/20 09:20:28;;;;;;;2.38;1.58;;;;;;;21.24;88.91;100345.03;5054017;28;20037;-54
2022/08/20 09:22:54;;;;;;;3.33;1.90;;;;;;;21.30;86.54;100343.28;5054662;28;20424;-55
2022/08/20 09:25:19;;;;;;;3.75;2.20;;;;;;;21.35;86.75;100344.22;5052989;28;20045;-53
2022/08/20 09:27:45;;;;;;;4.28;2.13;;;;;;;21.54;84.38;100344.00;5054334;28;20159;-52
2022/08/20 09:30:12;;;;;;;2.75;1.88;;;;;;;21.58;84.81;100337.03;5053884;28;20064;-57
2022/08/20 09:32:37;;;;;;;3.35;1.73;;;;;;;21.64;84.66;100341.47;5054241;28;20400;-57
2022/08/20 09:35:03;;;;;;;2.17;1.70;;;;;;;21.75;84.33;100340.59;5054163;28;20033;-54
2022/08/20 09:37:31;;;;;;;1.80;1.33;;;;;;;21.90;83.89;100338.13;5054039;28;20474;-54
2022/08/20 09:39:56;;;;;;;2.70;1.50;;;;;;;22.04;83.21;100335.09;5053926;28;20040;-58
2022/08/20 09:42:25;;;;;;;2.35;1.50;;;;;;;22.22;81.55;100329.47;5053917;28;20037;-57
2022/08/20 09:44:51;;;;;;;2.38;1.55;;;;;;;22.53;79.81;100332.63;5053869;28;20033;-55
2022/08/20 09:47:17;;;;;;;2.00;1.25;;;;;;;22.84;77.98;100321.13;5052612;28;20406;-55
2022/08/20 09:49:43;;;;;;;1.73;1.40;;;;;;;22.98;76.21;100311.53;5053608;28;20040;-56
2022/08/20 09:52:16;;;;;;;2.03;1.40;;;;;;;23.49;74.83;100317.53;5054808;28;20070;-55
2022/08/20 09:54:41;;;;;;;1.92;1.27;;;;;;;24.32;71.52;100303.53;5093978;28;20278;-55
2022/08/20 09:57:08;;;;;;;3.15;1.67;;;;;;;24.58;69.52;100297.22;5093868;28;20032;-55
2022/08/20 09:59:35;;;;;;;4.78;1.20;;;;;;;24.97;68.03;100306.91;5093615;28;20388;-57
2022/08/20 10:02:01;;;;;;;1.70;1.17;;;;;;;24.78;66.77;100301.13;5093813;28;20094;-52
2022/08/20 10:04:27;;;;;;;1.50;1.10;;;;;;;24.79;65.61;100314.47;5093785;28;20032;-53
2022/08/20 10:06:53;;;;;;;1.77;1.10;;;;;;;25.31;64.81;100301.88;5092292;28;20484;-55
2022/08/20 10:09:18;;;;;;;1.83;1.05;;;;;;;25.75;62.89;100299.47;5092175;28;20417;-55
2022/08/20 10:11:43;;;;;;;2.78;1.20;;;;;;;26.31;61.34;100298.63;5093638;28;20515;-52
2022/08/20 10:14:09;;;;;;;2.33;1.30;;;;;;;26.03;60.96;100300.03;5093500;28;20055;-53
2022/08/20 10:16:35;;;;;;;1.05;0.80;;;;;;;26.07;61.55;100303.84;5093517;28;20115;-57
2022/08/20 10:19:01;;;;;;;2.10;1.13;;;;;;;26.15;61.14;100293.22;5093337;28;20070;-50
2022/08/20 10:21:26;;;;;;;1.55;1.00;;;;;;;25.85;60.78;100295.97;5093179;28;20071;-53
2022/08/20 10:23:52;;;;;;;1.77;1.00;;;;;;;25.62;60.30;100289.09;5093471;28;20117;-54
2022/08/20 10:26:17;;;;;;;2.63;1.38;;;;;;;25.29;61.14;100285.75;5093321;28;20051;-54
2022/08/20 10:28:43;;;;;;;1.73;1.25;;;;;;;25.18;61.93;100286.84;5093385;28;20048;-56
2022/08/20 10:31:10;;;;;;;1.63;1.10;;;;;;;25.25;62.74;100281.97;5105401;22;20054;-52
2022/08/20 10:33:36;;;;;;;1.92;1.10;;;;;;;25.26;62.70;100285.50;5073328;28;20052;-55
2022/08/20 10:36:08;;;;;;;1.80;1.30;;;;;;;25.12;63.44;100293.38;5073107;28;20041;-57
2022/08/20 10:38:34;;;;;;;3.70;1.00;;;;;;;25.14;63.61;100286.56;5073263;28;20046;-52
2022/08/20 10:40:59;;;;;;;1.25;1.10;;;;;;;25.20;63.71;100276.50;5072769;28;20131;-52
2022/08/20 10:43:25;;;;;;;1.15;1.02;;;;;;;25.33;62.00;100286.06;5055269;28;20049;-54
2022/08/20 10:45:50;;;;;;;1.42;1.20;;;;;;;25.40;60.51;100281.16;5072987;28;20110;-51
2022/08/20 10:48:16;;;;;;;3.72;1.10;;;;;;;25.45;61.23;100281.19;5072971;28;20041;-52
2022/08/20 10:50:41;;;;;;;1.75;1.25;;;;;;;25.58;59.84;100283.38;5072423;28;20037;-56
2022/08/20 10:53:07;;;;;;;1.30;1.20;;;;;;;25.35;59.47;100284.69;5072918;28;20037;-52
2022/08/20 10:55:32;;;;;;;1.30;1.20;;;;;;;25.25;60.38;100287.41;5072886;28;20403;-52
2022/08/20 10:57:58;;;;;;;1.20;1.10;;;;;;;25.05;61.80;100295.53;5072740;28;20067;-55
2022/08/20 11:00:23;;;;;;;1.48;1.00;;;;;;;24.58;65.16;100310.84;5072465;28;20438;-53
2022/08/20 11:02:49;;;;;;;1.88;1.45;;;;;;;23.82;68.16;100296.66;5072605;28;20370;-52
2022/08/20 11:05:14;;;;;;;1.80;1.30;;;;;;;23.51;69.33;100301.78;5072646;28;20501;-53
2022/08/20 11:07:42;;;;;;;2.10;1.20;;;;;;;23.18;70.68;100297.38;5072849;28;20045;-52
2022/08/20 11:10:09;;;;;;;1.52;1.30;;;;;;;23.08;71.26;100299.97;5072185;28;20044;-52
2022/08/20 11:12:35;;;;;;;1.73;1.52;;;;;;;23.34;71.06;100290.19;5072509;28;20059;-57
2022/08/20 11:15:00;;;;;;;1.98;1.30;;;;;;;23.56;70.08;100285.53;5072552;28;20469;-52
2022/08/20 11:17:29;;;;;;;1.45;1.13;;;;;;;23.77;68.64;100291.19;5072634;28;20501;-53
2022/08/20 11:19:56;;;;;;;2.45;1.55;;;;;;;24.30;66.84;100295.66;5054054;28;20028;-55
2022/08/20 11:22:22;;;;;;;2.45;1.60;;;;;;;24.35;66.02;100289.47;5072701;28;20042;-55
2022/08/20 11:24:48;;;;;;;2.38;1.30;;;;;;;24.66;65.18;100284.19;5072461;28;20036;-52
2022/08/20 11:27:23;;;;;;;2.00;1.80;;;;;;;24.76;63.94;100281.47;5073132;28;20512;-58
2022/08/20 11:29:48;;;;;;;2.58;1.55;;;;;;;24.93;62.71;100273.94;5073204;28;20047;-58
2022/08/20 11:32:14;;;;;;;1.40;1.25;;;;;;;25.24;61.01;100272.16;5073380;28;20037;-58
2022/08/20 11:34:39;;;;;;;1.08;0.90;;;;;;;25.28;60.54;100272.41;5074502;28;20036;-58
2022/08/20 11:37:05;;;;;;;1.20;1.10;;;;;;;25.79;59.10;100280.69;5072854;28;20045;-57
2022/08/20 11:39:30;;;;;;;1.15;1.05;;;;;;;25.71;58.64;100279.28;5073801;28;20063;-58
2022/08/20 11:41:56;;;;;;;2.72;1.50;;;;;;;26.23;58.06;100268.06;5069017;28;20637;-55
2022/08/20 11:44:21;;;;;;;1.65;1.38;;;;;;;26.60;56.50;100266.88;5068504;28;20070;-58
2022/08/20 11:46:47;;;;;;;1.45;1.20;;;;;;;26.48;55.80;100269.97;5073499;28;20512;-56
2022/08/20 11:49:12;;;;;;;1.75;1.33;;;;;;;26.76;55.57;100263.00;5055320;28;20047;-54
2022/08/20 11:51:37;;;;;;;1.33;1.00;;;;;;;27.72;50.98;100263.56;5056375;28;20116;-56
2022/08/20 11:54:04;;;;;;;1.05;0.85;;;;;;;27.78;47.78;100259.69;5072985;28;20059;-58
2022/08/20 11:56:30;;;;;;;1.00;0.90;;;;;;;27.66;49.31;100264.69;5037797;28;20033;-58
2022/08/20 11:58:55;;;;;;;1.38;1.00;;;;;;;28.49;48.86;100273.75;5054128;28;20501;-59
2022/08/20 12:01:21;;;;;;;0.75;0.70;;;;;;;29.03;44.31;100264.38;5072382;28;20040;-58
2022/08/20 12:03:46;;;;;;;1.23;0.68;;;;;;;29.37;43.43;100261.38;5073631;28;20075;-58
2022/08/20 12:06:12;;;;;;;0.90;0.70;;;;;;;29.92;42.89;100267.09;5073255;28;20032;-59
2022/08/20 12:08:38;;;;;;;0.75;0.50;;;;;;;29.56;43.07;100264.16;5074522;28;20044;-59
2022/08/20 12:11:03;;;;;;;0.40;0.40;;;;;;;30.20;42.97;100262.50;5073145;28;20405;-59
2022/08/20 12:13:32;;;;;;;0.68;0.68;;;;;;;30.43;41.00;100272.47;5073852;28;20040;-58
2022/08/20 12:15:58;;;;;;;0.60;0.60;;;;;;;30.30;40.23;100256.81;5055712;28;20036;-59
2022/08/20 12:18:23;;;;;;;0.30;0.30;;;;;;;30.60;39.78;100257.31;5074603;28;20063;-55
2022/08/20 12:20:49;;;;;;;0.50;0.50;;;;;;;30.08;40.61;100262.97;5073281;28;20078;-57
2022/08/20 12:23:14;;;;;;;0.50;0.50;;;;;;;30.16;42.54;100259.53;5056554;28;20481;-58
2022/08/20 12:25:40;;;;;;;1.30;0.50;;;;;;;30.75;41.27;100268.03;5073515;28;20048;-57
2022/08/20 12:28:05;;;;;;;0.47;0.43;;;;;;;30.81;41.25;100261.31;5073481;28;20033;-56
2022/08/20 12:30:31;;;;;;;0.30;0.30;;;;;;;30.86;40.63;100263.94;5072810;28;20447;-56
2022/08/20 12:32:57;;;;;;;0.55;0.30;;;;;;;31.06;38.42;100248.94;5072402;28;20052;-58
2022/08/20 12:35:23;;;;;;;0.52;0.50;;;;;;;31.02;38.39;100254.22;5069526;28;20036;-59
2022/08/20 12:37:49;;;;;;;0.40;0.30;;;;;;;30.45;41.08;100247.44;5074236;28;20089;-59
2022/08/20 12:40:21;;;;;;;0.27;0.27;;;;;;;30.74;38.70;100252.66;5072494;28;20104;-59
2022/08/20 12:42:47;;;;;;;0.30;0.30;;;;;;;30.65;38.12;100240.75;5060628;28;20071;-59
2022/08/20 12:45:14;;;;;;;0.40;0.30;;;;;;;31.40;38.63;100242.13;5056241;28;20493;-58
2022/08/20 12:47:42;;;;;;;0.20;0.20;;;;;;;31.86;35.21;100241.81;5055728;28;20037;-55
2022/08/20 12:50:11;;;;;;;0.85;0.50;;;;;;;32.49;35.24;100248.94;5060807;28;20039;-56
2022/08/20 12:52:38;;;;;;;0.45;0.45;;;;;;;32.33;33.76;100250.47;5067353;28;20143;-56
2022/08/20 12:55:05;;;;;;;0.32;0.32;;;;;;;33.26;32.24;100238.38;5065757;28;20029;-56
2022/08/20 12:57:34;;;;;;;1.20;0.50;;;;;;;33.48;31.99;100240.97;5064290;28;20471;-56
2022/08/20 13:00:30;;;;;;;0.93;0.63;;;;;;;32.87;32.67;100249.22;5064003;28;20067;-55
2022/08/20 13:02:58;;;;;;;0.70;0.47;;;;;;;33.10;34.83;100230.56;5062120;28;20033;-58
2022/08/20 13:05:27;;;;;;;0.45;0.45;;;;;;;32.29;34.02;100242.03;5056873;28;20044;-56
2022/08/20 13:07:52;;;;;;;0.25;0.20;;;;;;;32.32;32.78;100226.78;5057464;28;20096;-57
2022/08/20 13:10:22;;;;;;;0.20;0.20;;;;;;;32.89;33.42;100224.06;5055181;28;20036;-59
2022/08/20 13:12:48;;;;;;;0.28;0.25;;;;;;;33.67;32.35;100219.34;5069568;28;20043;-54
2022/08/20 13:15:14;;;;;;;0.30;0.30;;;;;;;33.40;30.77;100228.81;5065455;28;20036;-53
2022/08/20 13:17:40;;;;;;;0.30;0.30;;;;;;;32.55;32.01;100219.28;5055542;28;20108;-57
2022/08/20 13:20:16;;;;;;;0.20;0.20;;;;;;;33.20;31.80;100215.63;5038350;28;20498;-57
2022/08/20 13:22:42;;;;;;;0.30;0.30;;;;;;;33.38;31.52;100221.94;5056497;28;20539;-55
2022/08/20 13:25:10;;;;;;;0.30;0.30;;;;;;;33.68;32.03;100212.66;5055950;28;20041;-56
2022/08/20 13:27:39;;;;;;;0.20;0.20;;;;;;;33.14;31.23;100208.66;5055370;28;20037;-57
2022/08/20 13:30:06;;;;;;;2.20;0.28;;;;;;;33.10;30.96;100211.25;5064317;28;20029;-57
2022/08/20 13:32:32;;;;;;;0.68;0.40;;;;;;;33.06;31.26;100212.22;5064103;28;20055;-58
2022/08/20 13:34:58;;;;;;;0.40;0.40;;;;;;;33.03;30.83;100213.69;5066350;28;20036;-57
2022/08/20 13:37:26;;;;;;;0.93;0.50;;;;;;;33.00;31.62;100211.59;5063963;28;20043;-54
2022/08/20 13:39:53;;;;;;;0.43;0.43;;;;;;;32.38;31.72;100207.06;5063098;28;20033;-56
2022/08/20 13:42:18;;;;;;;0.20;0.20;;;;;;;31.98;32.04;100205.41;5065130;28;20040;-57
2022/08/20 13:44:44;;;;;;;2.33;0.57;;;;;;;31.95;32.19;100203.28;5073058;28;20033;-57
2022/08/20 13:47:18;;;;;;;0.23;0.20;;;;;;;31.41;31.96;100196.97;5056344;28;20130;-55
2022/08/20 13:49:44;;;;;;;0.28;0.25;;;;;;;30.76;32.90;100198.19;5073357;28;20081;-52
2022/08/20 13:52:10;;;;;;;0.45;0.38;;;;;;;30.47;32.90;100204.00;5067799;28;20040;-57
2022/08/20 13:54:37;;;;;;;0.57;0.40;;;;;;;30.04;32.80;100192.47;5046604;28;20029;-56
2022/08/20 13:57:05;;;;;;;0.70;0.50;;;;;;;29.75;32.65;100190.81;5074085;28;20040;-56
2022/08/20 13:59:34;;;;;;;0.70;0.40;;;;;;;29.61;33.62;100185.31;5072458;28;20044;-50
2022/08/20 14:01:59;;;;;;;0.65;0.50;;;;;;;29.48;34.32;100196.22;5073581;28;20037;-51
2022/08/20 14:04:25;;;;;;;0.85;0.40;;;;;;;29.16;32.92;100182.16;5073480;28;20039;-52
2022/08/20 14:06:50;;;;;;;0.95;0.40;;;;;;;29.33;34.91;100183.53;5073355;28;20370;-54
2022/08/20 14:09:16;;;;;;;0.70;0.50;;;;;;;29.14;34.07;100186.31;5072946;28;20033;-57
2022/08/20 14:11:41;;;;;;;0.82;0.63;;;;;;;28.94;34.54;100192.91;5072874;28;20425;-52
2022/08/20 14:14:06;;;;;;;0.60;0.60;;;;;;;28.82;34.21;100190.59;5071408;28;20126;-53
2022/08/20 14:16:32;;;;;;;0.63;0.60;;;;;;;28.59;34.41;100186.00;5071986;28;20044;-57
2022/08/20 14:18:58;;;;;;;0.52;0.50;;;;;;;28.39;34.03;100178.84;5072635;28;20508;-51
2022/08/20 14:21:23;;;;;;;0.68;0.57;;;;;;;28.21;34.11;100196.00;5072813;28;20039;-53
2022/08/20 14:23:48;;;;;;;1.90;0.60;;;;;;;28.17;34.35;100184.00;5073389;28;20042;-54
2022/08/20 14:26:14;;;;;;;0.43;0.40;;;;;;;28.29;34.67;100179.75;5073708;28;20060;-52
2022/08/20 14:28:39;;;;;;;0.50;0.50;;;;;;;28.39;34.93;100184.31;5073504;28;20626;-53
2022/08/20 14:31:05;;;;;;;1.00;0.60;;;;;;;28.37;34.40;100181.06;5072961;28;20032;-51
2022/08/20 14:33:30;;;;;;;2.00;1.00;;;;;;;28.45;37.02;100190.56;5055336;28;20079;-58
2022/08/20 14:35:56;;;;;;;0.65;0.47;;;;;;;28.38;34.17;100190.91;5073321;28;20044;-52
2022/08/20 14:38:21;;;;;;;1.20;0.65;;;;;;;28.28;34.58;100183.59;5073171;28;20151;-54
2022/08/20 14:40:48;;;;;;;0.50;0.50;;;;;;;28.34;34.17;100190.66;5072861;28;20079;-55
2022/08/20 14:43:14;;;;;;;1.33;0.63;;;;;;;28.31;33.78;100184.97;5073149;28;20401;-55
2022/08/20 14:45:39;;;;;;;0.80;0.55;;;;;;;28.23;33.21;100189.13;5073151;28;20044;-55
2022/08/20 14:48:06;;;;;;;1.33;0.57;;;;;;;27.90;33.41;100192.78;5072977;28;20178;-55
2022/08/20 14:50:33;;;;;;;0.60;0.60;;;;;;;27.85;33.07;100194.47;5072431;28;20027;-51
2022/08/20 14:53:00;;;;;;;1.25;0.65;;;;;;;27.98;33.25;100187.50;5054927;28;20386;-51
2022/08/20 14:55:30;;;;;;;0.70;0.60;;;;;;;27.97;34.04;100187.78;5073130;28;20032;-52
2022/08/20 14:57:56;;;;;;;0.65;0.40;;;;;;;27.92;32.71;100190.59;5073044;28;20036;-55
2022/08/20 15:00:25;;;;;;;1.95;0.75;;;;;;;27.90;32.15;100181.84;5072304;28;20028;-53
2022/08/20 15:02:50;;;;;;;1.33;0.88;;;;;;;27.94;32.49;100191.09;5072766;28;20029;-53
2022/08/20 15:05:16;;;;;;;1.23;0.70;;;;;;;27.84;31.61;100181.91;5053996;28;20642;-52
2022/08/20 15:07:45;;;;;;;1.05;0.68;;;;;;;27.87;32.02;100180.50;5072627;28;20063;-52
2022/08/20 15:10:16;;;;;;;0.65;0.55;;;;;;;27.89;32.06;100182.94;5072355;28;20397;-58
2022/08/20 15:12:42;;;;;;;1.67;0.77;;;;;;;27.73;31.62;100182.28;5072435;28;20047;-55
2022/08/20 15:15:09;;;;;;;0.50;0.50;;;;;;;27.75;31.64;100180.06;5072414;28;20040;-56
2022/08/20 15:17:35;;;;;;;0.85;0.60;;;;;;;27.90;32.57;100170.88;5072438;28;20033;-57
2022/08/20 15:20:08;;;;;;;0.80;0.60;;;;;;;27.92;31.20;100179.66;5072213;28;20032;-51
2022/08/20 15:22:34;;;;;;;0.88;0.75;;;;;;;27.76;31.88;100168.84;5072470;28;20071;-54
2022/08/20 15:24:59;;;;;;;0.70;0.57;;;;;;;27.70;31.35;100174.66;5072473;28;20032;-56
2022/08/20 15:27:25;;;;;;;0.80;0.60;;;;;;;27.77;31.36;100172.38;5072435;28;20047;-52
2022/08/20 15:29:52;;;;;;;0.50;0.50;;;;;;;27.76;31.23;100177.03;5071652;28;20036;-50
2022/08/20 15:32:18;;;;;;;0.93;0.70;;;;;;;27.90;31.67;100184.56;5054279;28;20136;-55
2022/08/20 15:34:44;;;;;;;1.07;0.77;;;;;;;27.78;31.46;100183.06;5072202;28;20497;-52
2022/08/20 15:37:16;;;;;;;0.85;0.70;;;;;;;27.76;30.72;100178.97;5071882;28;20120;-53
2022/08/20 15:39:43;;;;;;;1.58;0.93;;;;;;;27.73;31.48;100174.91;5071799;28;20048;-51
2022/08/20 15:42:09;;;;;;;1.30;0.75;;;;;;;27.68;31.07;100160.41;5072000;28;20485;-54
2022/08/20 15:44:35;;;;;;;2.05;0.80;;;;;;;27.71;31.07;100171.66;5072031;28;20388;-53
2022/08/20 15:47:34;;;;;;;0.80;0.60;;;;;;;27.67;31.33;100169.72;5071874;28;20040;-51
2022/08/20 15:50:24;;;;;;;1.33;0.77;;;;;;;27.58;31.37;100167.63;5071636;28;20094;-51
2022/08/20 15:52:50;;;;;;;0.80;0.50;;;;;;;27.56;31.24;100158.88;5071738;28;20504;-55